Skip Navigation Links Skip Navigation Links

Current Weather

Phoenix Sky Harbor Intl, Phoenix, Ariz.

For information only: do not use for flight planning or navigation.
Latest weather
Observation time Friday, October 30, 2020 1:51 PM MST
Local time Friday, October 30, 2020 2:40 PM MST
Flight conditions Visual Meteorological Conditions
Winds
Wind direction East-Southeast (110°)
Wind speed 7 mph
Visibility 10 mi.
Sky condition
Ceiling 25,000 ft. broken clouds
Cloud layer few clouds 20,000 ft.
Cloud layer broken clouds 25,000 ft.
Temperature 86°F
Dewpoint 32°F
Altimeter 29.94 in.Hg
Pressure change last 3 hours0.09 in.Hg
Pressure falling
Derived measurements
Relative humidity 14%
Heat index 86°F
Density altitude 2931 ft.
Sea-level pressure 29.90 in.Hg
Remarks
Automated weather observing station with precipitation discriminator.
METAR KPHX 302051Z 11006KT 10SM FEW200 BKN250 30/00 A2994 RMK AO2 SLP125 T03000000 57030

Settings

Location code

InnerDrive.Weather 4.0.6770.0 Release CLR 4.0.30319.42000
Copyright ©2018 Inner Drive Technology. All rights reserved. Portions Copyright ©1986-2018 David Braverman.

Find weather

Site navigation


Skip Navigation Links

Place info

Page info

PayPal - The safer, easier way to pay online!

Return home.

Copyright ©2020 Inner Drive Technology. Purveyors of fine, hand-crafted computer software. Page printed 2020-10-30T21:40:25 UTC.